createdAt,value
2018-12-29T00:00:05.950Z,21.51
2018-12-29T00:01:03.863Z,23.44
2018-12-29T00:02:03.196Z,22.67
2018-12-29T00:03:02.929Z,21.74
2018-12-29T00:04:02.880Z,24.7
2018-12-29T00:05:02.885Z,23.36
2018-12-29T00:06:03.627Z,24.83
2018-12-29T00:07:03.450Z,23.67
2018-12-29T00:08:03.755Z,23.74
2018-12-29T00:09:03.248Z,22.18
2018-12-29T00:10:03.318Z,21.32
2018-12-29T00:11:03.381Z,22.48
2018-12-29T00:12:02.978Z,22.48
2018-12-29T00:13:03.894Z,22.8
2018-12-29T00:14:03.334Z,23.51
2018-12-29T00:15:03.036Z,23.51
2018-12-29T00:16:03.703Z,22.71
2018-12-29T00:17:03.029Z,22.59
2018-12-29T00:18:03.238Z,22.48
2018-12-29T00:19:03.313Z,22.29
2018-12-29T00:20:02.925Z,24.32
2018-12-29T00:21:03.090Z,22.86
2018-12-29T00:22:02.965Z,22.67
2018-12-29T00:23:02.998Z,22.56
2018-12-29T00:24:03.140Z,23.04
2018-12-29T00:25:03.683Z,21.84
2018-12-29T00:26:02.825Z,21.84
2018-12-29T00:27:03.151Z,22.15
2018-12-29T00:28:03.415Z,22.98
2018-12-29T00:29:03.507Z,23.24
2018-12-29T00:30:03.287Z,23.95
2018-12-29T00:31:03.499Z,22.41
2018-12-29T00:32:03.047Z,22.05
2018-12-29T00:33:03.033Z,21.3
2018-12-29T00:34:03.400Z,24.24
2018-12-29T00:35:03.027Z,21.11
2018-12-29T00:36:02.861Z,21.82
2018-12-29T00:37:03.330Z,20.33
2018-12-29T00:38:03.677Z,22.48
2018-12-29T00:39:03.891Z,23.29
2018-12-29T00:40:03.601Z,22.39
2018-12-29T00:41:03.251Z,21.96
2018-12-29T00:42:03.376Z,22.68
2018-12-29T00:43:03.576Z,23.98
2018-12-29T00:44:03.091Z,23.38
2018-12-29T00:45:03.537Z,23.69
2018-12-29T00:46:03.383Z,23.69
2018-12-29T00:47:03.746Z,23.38
2018-12-29T00:48:03.266Z,23.74
2018-12-29T00:49:03.353Z,21.66
2018-12-29T00:50:03.809Z,24.18
2018-12-29T00:51:03.463Z,21.99
2018-12-29T00:52:03.469Z,23.44
2018-12-29T00:53:03.302Z,23.65
2018-12-29T00:54:02.954Z,24.29
2018-12-29T00:55:03.038Z,22.03
2018-12-29T00:56:02.912Z,23.71
2018-12-29T00:57:03.241Z,23.71
2018-12-29T00:58:02.908Z,22.26
2018-12-29T00:59:03.518Z,22.38
2018-12-29T01:00:03.356Z,22.38
2018-12-29T01:01:03.230Z,22.12
2018-12-29T01:02:03.410Z,20.98
2018-12-29T01:03:03.141Z,22.97
2018-12-29T01:04:03.060Z,21.97
2018-12-29T01:05:03.707Z,21.94
2018-12-29T01:06:02.785Z,22.28
2018-12-29T01:07:03.009Z,22.01
2018-12-29T01:08:03.486Z,22.24
2018-12-29T01:09:03.288Z,23.65
2018-12-29T01:10:03.161Z,22.37
2018-12-29T01:11:03.990Z,22.86
2018-12-29T01:12:02.876Z,21.08
2018-12-29T01:13:03.430Z,19.88
2018-12-29T01:14:02.743Z,25.06
2018-12-29T01:15:10.391Z,22.35
2018-12-29T01:16:03.058Z,22.48
2018-12-29T01:17:02.911Z,21.47
2018-12-29T01:18:03.887Z,22.65
2018-12-29T01:19:03.370Z,22.69
2018-12-29T01:20:02.966Z,22.28
2018-12-29T01:21:03.012Z,23.07
2018-12-29T01:22:02.983Z,22.78
2018-12-29T01:23:03.441Z,22.95
2018-12-29T01:24:03.326Z,21.46
2018-12-29T01:25:03.053Z,21.43
2018-12-29T01:26:03.217Z,23.39
2018-12-29T01:27:03.291Z,21.32
2018-12-29T01:28:02.867Z,21.82
2018-12-29T01:29:03.531Z,20.37
2018-12-29T01:30:04.218Z,20.22
2018-12-29T01:31:03.676Z,21.54
2018-12-29T01:32:03.562Z,20.16
2018-12-29T01:33:03.642Z,19.76
2018-12-29T01:34:03.253Z,21.19
2018-12-29T01:35:03.638Z,20.91
2018-12-29T01:36:03.838Z,20.92
2018-12-29T01:37:03.526Z,18.55
2018-12-29T01:38:03.306Z,18.55
2018-12-29T01:39:03.627Z,20.78
2018-12-29T01:40:03.341Z,20.65
2018-12-29T01:41:03.428Z,21.92
2018-12-29T01:42:02.957Z,22.56
2018-12-29T01:43:02.966Z,23.74
2018-12-29T01:44:03.338Z,24.29
2018-12-29T01:45:03.067Z,22.5
2018-12-29T01:46:02.887Z,26.47
2018-12-29T01:47:03.389Z,28.31
2018-12-29T01:48:03.877Z,23.92
2018-12-29T01:49:03.198Z,28.61
2018-12-29T01:50:03.728Z,26.41
2018-12-29T01:51:03.056Z,26.31
2018-12-29T01:52:02.732Z,28.69
2018-12-29T01:53:03.097Z,27.95
2018-12-29T01:54:03.851Z,26.42
2018-12-29T01:55:03.381Z,26.35
2018-12-29T01:56:03.011Z,26.74
2018-12-29T01:57:03.265Z,23.46
2018-12-29T01:58:03.748Z,26.7
2018-12-29T01:59:03.510Z,28.44
2018-12-29T02:00:03.836Z,27.61
2018-12-29T02:01:03.177Z,27.84
2018-12-29T02:02:03.173Z,27.46
2018-12-29T02:03:02.974Z,29.36
2018-12-29T02:04:03.424Z,28.76
2018-12-29T02:05:03.911Z,28.32
2018-12-29T02:06:02.938Z,31.3
2018-12-29T02:07:03.679Z,26.11
2018-12-29T02:08:03.677Z,28.72
2018-12-29T02:09:03.635Z,29.82
2018-12-29T02:10:03.478Z,29.54
2018-12-29T02:11:03.539Z,25.26
2018-12-29T02:12:03.453Z,29.95
2018-12-29T02:13:02.798Z,29.55
2018-12-29T02:14:03.292Z,29.81
2018-12-29T02:15:02.680Z,27.1
2018-12-29T02:16:03.062Z,26.79
2018-12-29T02:17:02.802Z,29.76
2018-12-29T02:18:03.653Z,29.76
2018-12-29T02:19:03.294Z,29.27
2018-12-29T02:20:03.382Z,28.81
2018-12-29T02:21:03.775Z,29.86
2018-12-29T02:22:03.386Z,31.15
2018-12-29T02:23:02.946Z,26.46
2018-12-29T02:24:03.187Z,29.59
2018-12-29T02:25:03.365Z,28.43
2018-12-29T02:26:02.991Z,31.91
2018-12-29T02:27:03.208Z,31.33
2018-12-29T02:28:03.164Z,29.08
2018-12-29T02:29:02.780Z,32.91
2018-12-29T02:30:03.661Z,30.66
2018-12-29T02:31:03.068Z,32.37
2018-12-29T02:32:02.979Z,30.92
2018-12-29T02:33:03.126Z,29.19
2018-12-29T02:34:03.099Z,32.48
2018-12-29T02:35:03.270Z,36
2018-12-29T02:36:03.502Z,33.3
2018-12-29T02:37:03.612Z,34.53
2018-12-29T02:38:03.370Z,33
2018-12-29T02:39:03.576Z,37.22
2018-12-29T02:40:03.384Z,30.01
2018-12-29T02:41:03.046Z,33.54
2018-12-29T02:42:03.223Z,33.39
2018-12-29T02:43:03.473Z,32.79
2018-12-29T02:44:02.698Z,34.66
2018-12-29T02:45:03.613Z,37.12
2018-12-29T02:46:03.265Z,34.66
2018-12-29T02:47:03.601Z,36.03
2018-12-29T02:48:03.480Z,32.62
2018-12-29T02:49:03.034Z,32.91
2018-12-29T02:50:03.498Z,33.48
2018-12-29T02:51:03.524Z,30.44
2018-12-29T02:52:03.489Z,26.26
2018-12-29T02:53:03.000Z,27.54
2018-12-29T02:54:03.247Z,27.45
2018-12-29T02:55:03.161Z,27.2
2018-12-29T02:56:02.927Z,27.48
2018-12-29T02:57:03.712Z,30.58
2018-12-29T02:58:03.436Z,31.48
2018-12-29T02:59:03.081Z,33.35
2018-12-29T03:00:03.162Z,32.94
2018-12-29T03:01:03.272Z,30.24
2018-12-29T03:02:03.489Z,31.36
2018-12-29T03:03:03.529Z,31.36
2018-12-29T03:04:03.118Z,31.39
2018-12-29T03:05:03.104Z,30.52
2018-12-29T03:06:03.351Z,28.93
2018-12-29T03:07:03.249Z,31.39
2018-12-29T03:08:03.184Z,31.39
2018-12-29T03:09:03.802Z,29.88
2018-12-29T03:10:03.526Z,29.74
2018-12-29T03:11:03.792Z,31.09
2018-12-29T03:12:02.737Z,30.66
2018-12-29T03:13:03.387Z,32.83
2018-12-29T03:14:03.259Z,32.52
2018-12-29T03:15:03.269Z,30.32
2018-12-29T03:16:03.656Z,29.22
2018-12-29T03:17:03.191Z,28.15
2018-12-29T03:18:02.693Z,32.41
2018-12-29T03:19:02.981Z,30.88
2018-12-29T03:20:02.962Z,30.31
2018-12-29T03:21:03.439Z,31.72
2018-12-29T03:22:03.232Z,29.52
2018-12-29T03:23:02.671Z,29.54
2018-12-29T03:24:03.431Z,31.19
2018-12-29T03:25:03.314Z,31.84
2018-12-29T03:26:03.354Z,28.95
2018-12-29T03:27:03.721Z,29.36
2018-12-29T03:28:03.667Z,29.71
2018-12-29T03:29:02.917Z,30.7
2018-12-29T03:30:02.992Z,30.76
2018-12-29T03:31:02.922Z,31.21
2018-12-29T03:32:03.774Z,31.85
2018-12-29T03:33:02.808Z,30.05
2018-12-29T03:34:03.114Z,32.99
2018-12-29T03:35:03.570Z,30.6
2018-12-29T03:36:02.821Z,30.46
2018-12-29T03:37:02.653Z,33.11
2018-12-29T03:38:03.953Z,32.03
2018-12-29T03:39:03.921Z,32.85
2018-12-29T03:40:03.720Z,26.55
2018-12-29T03:41:03.734Z,32.85
2018-12-29T03:42:02.990Z,31.99
2018-12-29T03:43:03.136Z,28.28
2018-12-29T03:44:03.112Z,27.85
2018-12-29T03:45:03.652Z,25.36
2018-12-29T03:46:02.967Z,28.4
2018-12-29T03:47:03.424Z,28.4
2018-12-29T03:48:03.259Z,27.84
2018-12-29T03:49:03.300Z,26.64
2018-12-29T03:50:02.875Z,26.64
2018-12-29T03:51:02.796Z,25.51
2018-12-29T03:52:03.016Z,25.56
2018-12-29T03:53:03.398Z,25.56
2018-12-29T03:54:03.492Z,26.36
2018-12-29T03:55:04.077Z,26.24
2018-12-29T03:56:02.879Z,28.13
2018-12-29T03:57:03.705Z,29.02
2018-12-29T03:58:03.789Z,25.32
2018-12-29T03:59:03.313Z,27.88
2018-12-29T04:00:03.802Z,27.78
2018-12-29T04:01:03.309Z,26.39
2018-12-29T04:02:03.433Z,26.5
2018-12-29T04:03:03.650Z,26.5
2018-12-29T04:04:03.785Z,27.79
2018-12-29T04:05:03.798Z,27.2
2018-12-29T04:06:03.466Z,28.14
2018-12-29T04:07:03.311Z,28.21
2018-12-29T04:08:03.268Z,29.01
2018-12-29T04:09:03.265Z,28.84
2018-12-29T04:10:02.870Z,25.98
2018-12-29T04:11:03.068Z,29.66
2018-12-29T04:12:03.560Z,28.16
2018-12-29T04:13:03.578Z,28.74
2018-12-29T04:14:03.036Z,30.01
2018-12-29T04:15:03.418Z,27.71
2018-12-29T04:16:03.541Z,26.98
2018-12-29T04:17:03.666Z,29.34
2018-12-29T04:18:02.854Z,27.21
2018-12-29T04:19:03.278Z,26.58
2018-12-29T04:20:03.732Z,26.16
2018-12-29T04:21:03.062Z,27.27
2018-12-29T04:22:03.024Z,29.36
2018-12-29T04:23:03.557Z,28.9
2018-12-29T04:24:02.656Z,27.64
2018-12-29T04:25:02.903Z,26.75
2018-12-29T04:26:03.177Z,27.12
2018-12-29T04:27:03.468Z,27.49
2018-12-29T04:28:03.554Z,26.89
2018-12-29T04:29:03.151Z,29.61
2018-12-29T04:30:03.617Z,26.48
2018-12-29T04:31:03.010Z,27.54
2018-12-29T04:32:02.897Z,28.61
2018-12-29T04:33:03.617Z,24.6
2018-12-29T04:34:03.424Z,28.33
2018-12-29T04:35:03.763Z,28.06
2018-12-29T04:36:02.757Z,31.1
2018-12-29T04:37:02.711Z,26.38
2018-12-29T04:38:03.006Z,30.77
2018-12-29T04:39:02.778Z,30.77
2018-12-29T04:40:03.360Z,30.79
2018-12-29T04:41:02.985Z,28.46
2018-12-29T04:42:03.201Z,29.61
2018-12-29T04:43:03.684Z,30.84
2018-12-29T04:44:03.862Z,29.27
2018-12-29T04:45:03.772Z,28.4
2018-12-29T04:46:05.549Z,28.4
2018-12-29T04:47:03.614Z,0
2018-12-29T04:48:02.940Z,0
2018-12-29T04:49:03.514Z,0
2018-12-29T04:50:03.718Z,0
2018-12-29T04:51:03.380Z,0
2018-12-29T04:52:03.165Z,0
2018-12-29T04:53:02.729Z,0
2018-12-29T04:54:03.245Z,0
2018-12-29T04:55:03.743Z,0
2018-12-29T04:56:02.817Z,0
2018-12-29T04:57:03.535Z,0
2018-12-29T04:58:03.149Z,0
2018-12-29T04:59:03.724Z,0
2018-12-29T05:00:03.459Z,0
2018-12-29T05:01:03.661Z,0
2018-12-29T05:02:03.463Z,0
2018-12-29T05:03:03.045Z,0
2018-12-29T05:04:03.703Z,0
2018-12-29T05:05:03.774Z,0
2018-12-29T05:06:03.548Z,0
2018-12-29T05:07:03.259Z,0
2018-12-29T05:08:02.886Z,0
2018-12-29T05:09:03.631Z,0
2018-12-29T05:10:03.309Z,0
2018-12-29T05:11:03.480Z,0
2018-12-29T05:12:02.880Z,0
2018-12-29T05:13:03.276Z,0
2018-12-29T05:14:03.440Z,0
2018-12-29T05:15:03.683Z,0
2018-12-29T05:16:03.258Z,0
2018-12-29T05:17:03.176Z,0
2018-12-29T05:18:03.672Z,0
2018-12-29T05:19:03.859Z,0
2018-12-29T05:20:03.010Z,0
2018-12-29T05:21:03.608Z,0
2018-12-29T05:22:02.953Z,0
2018-12-29T05:23:03.250Z,0
2018-12-29T05:24:02.952Z,0
2018-12-29T05:25:03.030Z,0
2018-12-29T05:26:03.730Z,0
2018-12-29T05:27:02.926Z,0
2018-12-29T05:28:03.526Z,0
2018-12-29T05:29:03.267Z,0
2018-12-29T05:30:03.512Z,0
2018-12-29T05:31:03.743Z,0
2018-12-29T05:32:03.073Z,0
2018-12-29T05:33:02.970Z,0
2018-12-29T05:34:03.954Z,0
2018-12-29T05:35:03.344Z,0
2018-12-29T05:36:03.675Z,0
2018-12-29T05:37:03.075Z,0
2018-12-29T05:38:03.782Z,0
2018-12-29T05:39:02.845Z,0
2018-12-29T05:40:03.066Z,0
2018-12-29T05:41:03.869Z,0
2018-12-29T05:42:03.319Z,0
2018-12-29T05:43:03.069Z,0
2018-12-29T05:44:03.276Z,0
2018-12-29T05:45:03.852Z,0
2018-12-29T05:46:03.154Z,0
2018-12-29T05:47:03.409Z,0
2018-12-29T05:48:02.662Z,0
2018-12-29T05:49:03.737Z,0
2018-12-29T05:50:03.078Z,0
2018-12-29T05:51:02.886Z,0
2018-12-29T05:52:03.508Z,0
2018-12-29T05:53:03.729Z,0
2018-12-29T05:54:03.735Z,0
2018-12-29T05:55:03.518Z,0
2018-12-29T05:56:03.058Z,0
2018-12-29T05:57:03.184Z,0
2018-12-29T05:58:03.512Z,0
2018-12-29T05:59:02.939Z,0
2018-12-29T06:00:02.923Z,0
2018-12-29T06:01:03.294Z,0
2018-12-29T06:02:03.716Z,0
2018-12-29T06:03:03.643Z,0
2018-12-29T06:04:02.857Z,0
2018-12-29T06:05:03.995Z,0
2018-12-29T06:06:03.519Z,0
2018-12-29T06:07:03.580Z,0
2018-12-29T06:08:03.177Z,0
2018-12-29T06:09:03.268Z,0
2018-12-29T06:10:02.957Z,0
2018-12-29T06:11:02.769Z,0
2018-12-29T06:12:02.697Z,0
2018-12-29T06:13:03.722Z,0
2018-12-29T06:14:03.096Z,0
2018-12-29T06:15:03.105Z,0
2018-12-29T06:16:03.023Z,0
2018-12-29T06:17:02.759Z,0
2018-12-29T06:18:03.168Z,0
2018-12-29T06:19:02.781Z,0
2018-12-29T06:20:03.763Z,0
2018-12-29T06:21:02.948Z,0
2018-12-29T06:22:02.917Z,0
2018-12-29T06:23:02.835Z,0
2018-12-29T06:24:03.159Z,0
2018-12-29T06:25:02.859Z,0
2018-12-29T06:26:03.113Z,0
2018-12-29T06:27:03.322Z,0
2018-12-29T06:28:03.479Z,0
2018-12-29T06:29:02.989Z,0
2018-12-29T06:30:03.224Z,0
2018-12-29T06:31:03.443Z,0
2018-12-29T06:32:02.948Z,0
2018-12-29T06:33:03.808Z,0
2018-12-29T06:34:03.652Z,0
2018-12-29T06:35:03.020Z,0
2018-12-29T06:36:02.912Z,0
2018-12-29T06:37:03.391Z,0
2018-12-29T06:38:03.229Z,0
2018-12-29T06:39:02.839Z,0
2018-12-29T06:40:02.765Z,0
2018-12-29T06:41:03.150Z,0
2018-12-29T06:42:02.617Z,0
2018-12-29T06:43:02.825Z,0
2018-12-29T06:44:03.782Z,0
2018-12-29T06:45:03.364Z,0
2018-12-29T06:46:03.034Z,0
2018-12-29T06:47:03.523Z,0
2018-12-29T06:48:03.596Z,0
2018-12-29T06:49:03.589Z,0
2018-12-29T06:50:03.235Z,0
2018-12-29T06:51:03.243Z,0
2018-12-29T06:52:03.446Z,0
2018-12-29T06:53:02.873Z,0
2018-12-29T06:54:03.580Z,0
2018-12-29T06:55:03.151Z,0
2018-12-29T06:56:03.622Z,0
2018-12-29T06:57:03.662Z,0
2018-12-29T06:58:02.863Z,0
2018-12-29T06:59:03.330Z,0
2018-12-29T07:00:03.093Z,0
2018-12-29T07:01:02.836Z,0
2018-12-29T07:02:03.697Z,0
2018-12-29T07:03:03.753Z,0
2018-12-29T07:04:03.073Z,0
2018-12-29T07:05:03.710Z,0
2018-12-29T07:06:02.897Z,0
2018-12-29T07:07:03.026Z,0
2018-12-29T07:08:03.508Z,0
2018-12-29T07:09:02.841Z,0
2018-12-29T07:10:03.429Z,0
2018-12-29T07:11:02.926Z,0
2018-12-29T07:12:04.687Z,0
2018-12-29T07:13:03.311Z,0
2018-12-29T07:14:03.379Z,0
2018-12-29T07:15:02.865Z,0
2018-12-29T07:16:03.284Z,0
2018-12-29T07:17:03.341Z,0
2018-12-29T07:18:03.277Z,0
2018-12-29T07:19:03.625Z,0
2018-12-29T07:20:03.111Z,0
2018-12-29T07:21:03.196Z,0
2018-12-29T07:22:03.345Z,0
2018-12-29T07:23:03.228Z,0
2018-12-29T07:24:03.447Z,0
2018-12-29T07:25:03.296Z,0
2018-12-29T07:26:03.189Z,0
2018-12-29T07:27:03.379Z,0
2018-12-29T07:28:03.238Z,0
2018-12-29T07:29:04.287Z,0
2018-12-29T07:30:03.376Z,0
2018-12-29T07:31:03.093Z,0
2018-12-29T07:32:03.734Z,0
2018-12-29T07:33:03.532Z,0
2018-12-29T07:34:03.804Z,0
2018-12-29T07:35:02.933Z,0
2018-12-29T07:36:03.484Z,0
2018-12-29T07:37:03.186Z,0
2018-12-29T07:38:03.081Z,0
2018-12-29T07:39:03.153Z,0
2018-12-29T07:40:03.467Z,0
2018-12-29T07:41:03.292Z,0
2018-12-29T07:42:03.136Z,0
2018-12-29T07:43:02.891Z,0
2018-12-29T07:44:03.405Z,0
2018-12-29T07:45:03.315Z,0
2018-12-29T07:46:02.877Z,0
2018-12-29T07:47:02.917Z,0
2018-12-29T07:48:03.697Z,0
2018-12-29T07:49:03.017Z,0
2018-12-29T07:50:03.248Z,0
2018-12-29T07:51:03.655Z,0
2018-12-29T07:52:03.537Z,0
2018-12-29T07:53:03.199Z,0
2018-12-29T07:54:02.967Z,0
2018-12-29T07:55:03.592Z,0
2018-12-29T07:56:03.233Z,0
2018-12-29T07:57:03.142Z,0
2018-12-29T07:58:03.540Z,0
2018-12-29T07:59:02.778Z,0
2018-12-29T08:00:03.197Z,0
2018-12-29T08:01:03.719Z,0
2018-12-29T08:02:03.534Z,0
2018-12-29T08:03:03.043Z,0
2018-12-29T08:04:02.924Z,0
2018-12-29T08:05:03.472Z,0
2018-12-29T08:06:03.012Z,0
2018-12-29T08:07:02.746Z,0
2018-12-29T08:08:03.468Z,0
2018-12-29T08:09:03.663Z,0
2018-12-29T08:10:02.721Z,0
2018-12-29T08:11:03.600Z,0
2018-12-29T08:12:03.425Z,0
2018-12-29T08:13:03.154Z,0
2018-12-29T08:14:03.655Z,0
2018-12-29T08:15:02.788Z,0
2018-12-29T08:16:02.727Z,0
2018-12-29T08:17:03.690Z,0
2018-12-29T08:18:03.346Z,0
2018-12-29T08:19:03.439Z,0
2018-12-29T08:20:03.117Z,0
2018-12-29T08:21:03.181Z,0
2018-12-29T08:22:03.692Z,0
2018-12-29T08:23:03.309Z,0
2018-12-29T08:24:03.087Z,0
2018-12-29T08:25:02.988Z,0
2018-12-29T08:26:02.897Z,0
2018-12-29T08:27:03.403Z,0
2018-12-29T08:28:03.081Z,0
2018-12-29T08:29:02.671Z,0
2018-12-29T08:30:03.815Z,0
2018-12-29T08:31:03.131Z,0
2018-12-29T08:32:03.535Z,0
2018-12-29T08:33:03.442Z,0
2018-12-29T08:34:02.901Z,0
2018-12-29T08:35:03.454Z,0
2018-12-29T08:36:03.602Z,0
2018-12-29T08:37:03.108Z,0
2018-12-29T08:38:03.620Z,0
2018-12-29T08:39:03.547Z,0
2018-12-29T08:40:03.388Z,0
2018-12-29T08:41:02.938Z,0
2018-12-29T08:42:03.816Z,0
2018-12-29T08:43:03.220Z,0
2018-12-29T08:44:03.166Z,0
2018-12-29T08:45:03.825Z,0
2018-12-29T08:46:03.736Z,0
2018-12-29T08:47:04.950Z,0
2018-12-29T08:48:03.753Z,0
2018-12-29T08:49:03.512Z,0
2018-12-29T08:50:03.869Z,0
2018-12-29T08:51:03.711Z,0
2018-12-29T08:52:02.813Z,0
2018-12-29T08:53:03.006Z,0
2018-12-29T08:54:02.619Z,0
2018-12-29T08:55:03.334Z,0
2018-12-29T08:56:03.884Z,0
2018-12-29T08:57:03.188Z,0
2018-12-29T08:58:03.059Z,0
2018-12-29T08:59:03.046Z,0
2018-12-29T09:00:03.939Z,0
2018-12-29T09:01:02.951Z,0
2018-12-29T09:02:03.234Z,0
2018-12-29T09:03:03.261Z,0
2018-12-29T09:04:02.992Z,0
2018-12-29T09:05:03.778Z,0
2018-12-29T09:06:02.796Z,0
2018-12-29T09:07:03.606Z,0
2018-12-29T09:08:03.046Z,0
2018-12-29T09:09:03.558Z,0
2018-12-29T09:10:03.862Z,0
2018-12-29T09:11:03.084Z,0
2018-12-29T09:12:03.077Z,0
2018-12-29T09:13:03.508Z,0
2018-12-29T09:14:03.617Z,0
2018-12-29T09:15:02.955Z,0
2018-12-29T09:16:03.485Z,0
2018-12-29T09:17:03.089Z,0
2018-12-29T09:18:03.576Z,0
2018-12-29T09:19:02.961Z,0
2018-12-29T09:20:03.518Z,0
2018-12-29T09:21:03.079Z,0
2018-12-29T09:22:03.699Z,0
2018-12-29T09:23:03.602Z,0
2018-12-29T09:24:02.859Z,0
2018-12-29T09:25:03.636Z,0
2018-12-29T09:26:02.959Z,0
2018-12-29T09:27:03.177Z,0
2018-12-29T09:28:03.455Z,0
2018-12-29T09:29:03.442Z,0
2018-12-29T09:30:03.479Z,0
2018-12-29T09:31:03.112Z,0
2018-12-29T09:32:03.486Z,0
2018-12-29T09:33:03.362Z,0
2018-12-29T09:34:03.411Z,0
2018-12-29T09:35:03.603Z,0
2018-12-29T09:36:02.932Z,0
2018-12-29T09:37:03.225Z,0
2018-12-29T09:38:03.571Z,0
2018-12-29T09:39:03.838Z,0
2018-12-29T09:40:03.929Z,0
2018-12-29T09:41:03.050Z,0
2018-12-29T09:42:03.578Z,0
2018-12-29T09:43:03.161Z,0
2018-12-29T09:44:03.105Z,0
2018-12-29T09:45:04.316Z,0
2018-12-29T09:46:03.206Z,0
2018-12-29T09:47:03.626Z,0
2018-12-29T09:48:03.440Z,0
2018-12-29T09:49:02.980Z,0
2018-12-29T09:50:03.282Z,0
2018-12-29T09:51:03.571Z,0
2018-12-29T09:52:03.118Z,0
2018-12-29T09:53:03.697Z,0
2018-12-29T09:54:03.293Z,0
2018-12-29T09:55:02.953Z,0
2018-12-29T09:56:02.975Z,0
2018-12-29T09:57:03.344Z,0
2018-12-29T09:58:03.022Z,0
2018-12-29T09:59:03.487Z,0
2018-12-29T10:00:03.741Z,0
2018-12-29T10:01:03.264Z,0
2018-12-29T10:02:02.859Z,0
2018-12-29T10:03:03.748Z,0
2018-12-29T10:04:03.374Z,0
2018-12-29T10:05:03.058Z,0
2018-12-29T10:06:03.766Z,0
2018-12-29T10:07:03.295Z,0
2018-12-29T10:08:03.454Z,0
2018-12-29T10:09:03.680Z,0
2018-12-29T10:10:03.106Z,0
2018-12-29T10:11:03.816Z,0
2018-12-29T10:12:03.393Z,0
2018-12-29T10:13:03.338Z,0
2018-12-29T10:14:02.872Z,0
2018-12-29T10:15:03.788Z,0
2018-12-29T10:16:03.383Z,0
2018-12-29T10:17:03.860Z,0
2018-12-29T10:18:03.643Z,0
2018-12-29T10:19:03.572Z,0
2018-12-29T10:20:02.897Z,0
2018-12-29T10:21:03.362Z,0
2018-12-29T10:22:03.118Z,0
2018-12-29T10:23:03.238Z,0
2018-12-29T10:24:03.483Z,0
2018-12-29T10:25:03.616Z,0
2018-12-29T10:26:03.321Z,0
2018-12-29T10:27:02.971Z,0
2018-12-29T10:28:03.362Z,0
2018-12-29T10:29:03.124Z,0
2018-12-29T10:30:03.535Z,0
2018-12-29T10:31:03.524Z,0
2018-12-29T10:32:03.244Z,0
2018-12-29T10:33:02.854Z,0
2018-12-29T10:34:03.202Z,0
2018-12-29T10:35:03.046Z,0
2018-12-29T10:36:03.402Z,0
2018-12-29T10:37:03.452Z,0
2018-12-29T10:38:02.792Z,0
2018-12-29T10:39:03.360Z,0
2018-12-29T10:40:03.041Z,0
2018-12-29T10:41:03.335Z,0
2018-12-29T10:42:03.423Z,0
2018-12-29T10:43:03.387Z,0
2018-12-29T10:44:03.067Z,0
2018-12-29T10:45:03.066Z,0
2018-12-29T10:46:03.447Z,0
2018-12-29T10:47:03.118Z,0
2018-12-29T10:48:03.018Z,0
2018-12-29T10:49:03.679Z,0
2018-12-29T10:50:03.903Z,0
2018-12-29T10:51:03.365Z,0
2018-12-29T10:52:03.706Z,0
2018-12-29T10:53:03.727Z,0
2018-12-29T10:54:03.205Z,0
2018-12-29T10:55:03.402Z,0
2018-12-29T10:56:03.274Z,0
2018-12-29T10:57:03.735Z,0
2018-12-29T10:58:03.411Z,0
2018-12-29T10:59:03.925Z,0
2018-12-29T11:00:03.787Z,0
2018-12-29T11:01:03.016Z,0
2018-12-29T11:02:03.723Z,0
2018-12-29T11:03:03.275Z,0
2018-12-29T11:04:03.044Z,0
2018-12-29T11:05:02.852Z,0
2018-12-29T11:06:03.522Z,0
2018-12-29T11:07:03.160Z,0
2018-12-29T11:08:03.135Z,0
2018-12-29T11:09:03.741Z,0
2018-12-29T11:10:03.340Z,0
2018-12-29T11:11:03.589Z,0
2018-12-29T11:12:03.304Z,0
2018-12-29T11:13:03.270Z,0
2018-12-29T11:14:02.809Z,0
2018-12-29T11:15:03.485Z,0
2018-12-29T11:16:03.052Z,0
2018-12-29T11:17:03.740Z,0
2018-12-29T11:18:03.113Z,0
2018-12-29T11:19:03.830Z,0
2018-12-29T11:20:03.455Z,0
2018-12-29T11:21:03.034Z,0
2018-12-29T11:22:03.199Z,0
2018-12-29T11:23:03.270Z,0
2018-12-29T11:24:03.481Z,0
2018-12-29T11:25:03.637Z,0
2018-12-29T11:26:03.518Z,0
2018-12-29T11:27:03.703Z,0
2018-12-29T11:28:02.638Z,0
2018-12-29T11:29:03.550Z,0
2018-12-29T11:30:03.645Z,0
2018-12-29T11:31:02.737Z,0
2018-12-29T11:32:03.342Z,0
2018-12-29T11:33:03.150Z,0
2018-12-29T11:34:03.838Z,0
2018-12-29T11:35:03.766Z,0
2018-12-29T11:36:03.030Z,0
2018-12-29T11:37:03.046Z,0
2018-12-29T11:38:03.463Z,0
2018-12-29T11:39:02.838Z,0
2018-12-29T11:40:02.952Z,0
2018-12-29T11:41:03.437Z,0
2018-12-29T11:42:03.100Z,0
2018-12-29T11:43:03.413Z,0
2018-12-29T11:44:03.001Z,0
2018-12-29T11:45:03.341Z,0
2018-12-29T11:46:03.518Z,0
2018-12-29T11:47:03.080Z,0
2018-12-29T11:48:03.145Z,0
2018-12-29T11:49:03.440Z,0
2018-12-29T11:50:03.830Z,0
2018-12-29T11:51:03.232Z,0
2018-12-29T11:52:03.116Z,0
2018-12-29T11:53:03.634Z,0
2018-12-29T11:54:02.797Z,0
2018-12-29T11:55:03.105Z,0
2018-12-29T11:56:02.835Z,0
2018-12-29T11:57:04.207Z,0
2018-12-29T11:58:03.472Z,0
2018-12-29T11:59:03.185Z,0
2018-12-29T12:00:03.948Z,0
2018-12-29T12:01:02.983Z,0
2018-12-29T12:02:03.214Z,0
2018-12-29T12:03:03.017Z,0
2018-12-29T12:04:02.875Z,0
2018-12-29T12:05:03.886Z,0
2018-12-29T12:06:03.840Z,0
2018-12-29T12:07:03.025Z,0
2018-12-29T12:08:03.585Z,0
2018-12-29T12:09:03.596Z,0
2018-12-29T12:10:03.572Z,0
2018-12-29T12:11:03.355Z,0
2018-12-29T12:12:03.684Z,0
2018-12-29T12:13:02.710Z,0
2018-12-29T12:14:03.626Z,0
2018-12-29T12:15:03.345Z,0
2018-12-29T12:16:03.661Z,0
2018-12-29T12:17:02.883Z,0
2018-12-29T12:18:03.617Z,0
2018-12-29T12:19:02.972Z,0
2018-12-29T12:20:03.718Z,0
2018-12-29T12:21:03.367Z,0
2018-12-29T12:22:02.797Z,0
2018-12-29T12:23:03.548Z,0
2018-12-29T12:24:03.042Z,0
2018-12-29T12:25:03.757Z,0
2018-12-29T12:26:02.855Z,0
2018-12-29T12:27:02.980Z,0
2018-12-29T12:28:03.829Z,0
2018-12-29T12:29:03.712Z,0
2018-12-29T12:30:03.381Z,0
2018-12-29T12:31:03.569Z,0
2018-12-29T12:32:03.397Z,0
2018-12-29T12:33:03.480Z,0
2018-12-29T12:34:02.982Z,0
2018-12-29T12:35:03.751Z,0
2018-12-29T12:36:03.841Z,0
2018-12-29T12:37:02.928Z,0
2018-12-29T12:38:03.276Z,0
2018-12-29T12:39:03.266Z,0
2018-12-29T12:40:03.744Z,0
2018-12-29T12:41:03.555Z,0
2018-12-29T12:42:03.503Z,0
2018-12-29T12:43:03.411Z,0
2018-12-29T12:44:02.875Z,0
2018-12-29T12:45:02.826Z,0
2018-12-29T12:46:03.088Z,0
2018-12-29T12:47:03.133Z,0
2018-12-29T12:48:05.440Z,0
2018-12-29T12:49:03.362Z,0
2018-12-29T12:50:03.728Z,0
2018-12-29T12:51:03.536Z,0
2018-12-29T12:52:03.314Z,0
2018-12-29T12:53:03.669Z,0
2018-12-29T12:54:03.195Z,0
2018-12-29T12:55:02.927Z,0
2018-12-29T12:56:03.352Z,0
2018-12-29T12:57:03.381Z,0
2018-12-29T12:58:03.473Z,0
2018-12-29T12:59:02.737Z,0
2018-12-29T13:00:03.892Z,0
2018-12-29T13:01:03.890Z,0
2018-12-29T13:02:03.090Z,0
2018-12-29T13:03:03.004Z,0
2018-12-29T13:04:02.712Z,0
2018-12-29T13:05:03.898Z,0
2018-12-29T13:06:03.229Z,0
2018-12-29T13:07:03.464Z,0
2018-12-29T13:08:03.094Z,0
2018-12-29T13:09:03.290Z,0
2018-12-29T13:10:04.155Z,0
2018-12-29T13:11:03.135Z,0
2018-12-29T13:12:02.848Z,0
2018-12-29T13:13:03.160Z,0
2018-12-29T13:14:03.325Z,0
2018-12-29T13:15:03.482Z,0
2018-12-29T13:16:03.724Z,0
2018-12-29T13:17:03.688Z,0
2018-12-29T13:18:03.800Z,0
2018-12-29T13:19:03.435Z,0
2018-12-29T13:20:05.220Z,0
2018-12-29T13:21:03.696Z,0
2018-12-29T13:22:03.438Z,0
2018-12-29T13:23:02.955Z,0
2018-12-29T13:24:03.783Z,0
2018-12-29T13:25:03.138Z,0
2018-12-29T13:26:03.545Z,0
2018-12-29T13:27:03.107Z,0
2018-12-29T13:28:03.222Z,0
2018-12-29T13:29:03.617Z,0
2018-12-29T13:30:03.704Z,0
2018-12-29T13:31:03.746Z,0
2018-12-29T13:32:03.073Z,0
2018-12-29T13:33:03.532Z,0
2018-12-29T13:34:03.782Z,0
2018-12-29T13:35:03.356Z,0
2018-12-29T13:36:03.517Z,0
2018-12-29T13:37:03.445Z,0
2018-12-29T13:38:03.747Z,0
2018-12-29T13:39:03.845Z,0
2018-12-29T13:40:03.156Z,0
2018-12-29T13:41:03.113Z,0
2018-12-29T13:42:03.800Z,0
2018-12-29T13:43:03.046Z,0
2018-12-29T13:44:03.522Z,0
2018-12-29T13:45:03.154Z,0
2018-12-29T13:46:06.658Z,0
2018-12-29T13:47:03.550Z,0
2018-12-29T13:48:02.880Z,0
2018-12-29T13:49:03.905Z,0
2018-12-29T13:50:04.389Z,0
2018-12-29T13:51:03.899Z,0
2018-12-29T13:52:03.701Z,0
2018-12-29T13:53:03.862Z,0
2018-12-29T13:54:03.158Z,0
2018-12-29T13:55:03.961Z,0
2018-12-29T13:56:03.833Z,0
2018-12-29T13:57:03.620Z,0
2018-12-29T13:58:04.009Z,0
2018-12-29T13:59:04.866Z,0
2018-12-29T14:00:04.047Z,0
2018-12-29T14:01:03.214Z,0
2018-12-29T14:02:02.948Z,0
2018-12-29T14:03:03.332Z,0
2018-12-29T14:04:03.578Z,0
2018-12-29T14:05:03.784Z,0